CYPC

Paulatuk (Nora Aliqatchialuk Ruben) Airport

Paulatuk, Northwest Territories, Canada
METAR CYPC 190000Z 00000KT 15SM OVC029 M14/M18 A2955 RMK SC8 -13.3/-15.7/0 LAST STFD OBS/NEXT 191400 UTC SLP007
Observed Flight Rules
Dec-19 @ 00:00 UTC (12 hours ago) Marginal Visual Flight Rules
Visibility Clouds
15 miles
  • Overcast at 2,900' AGL
Temperatures Readings
Current -14°C / 7°F
Dewpoint -18°C / -0°F
Humidity 72%
Altimeter 29.55" Hg
Pressure 1000.7 hPa
Elevation 6
METAR CYPC 190000Z 00000KT 15SM OVC029 M14/M18 A2955 RMK SC8 -13.3/-15.7/0 LAST STFD OBS/NEXT 191400 UTC SLP007
Observed Flight Rules
Dec-19 @ 00:00 UTC
(12 hours ago)
MVFR
Clouds
  • Overcast at 2,900' AGL
Temperature Dewpoint
-14°C / 7°F -18°C / -0°F
Humidity Altimeter Pressure
72% 29.55" Hg 1000.7 hPa